createdAt,value
2023-02-23T00:02:09.581Z,0.51
2023-02-23T00:04:38.511Z,0.53
2023-02-23T00:07:07.062Z,0.55
2023-02-23T00:09:38.001Z,0.58
2023-02-23T00:12:10.375Z,0.61
2023-02-23T00:14:39.205Z,0.64
2023-02-23T00:17:15.070Z,0.67
2023-02-23T00:19:44.086Z,0.69
2023-02-23T00:22:13.004Z,0.69
2023-02-23T00:24:43.101Z,0.68
2023-02-23T00:27:17.964Z,0.67
2023-02-23T00:29:50.573Z,0.63
2023-02-23T00:32:20.211Z,0.58
2023-02-23T00:34:52.266Z,0.53
2023-02-23T00:37:23.325Z,0.48
2023-02-23T00:39:53.281Z,0.44
2023-02-23T00:42:22.167Z,0.37
2023-02-23T00:44:51.117Z,0.32
2023-02-23T00:47:19.407Z,0.26
2023-02-23T00:49:50.710Z,0.19
2023-02-23T00:52:20.354Z,0.15
2023-02-23T00:54:48.587Z,0.11
2023-02-23T00:57:16.895Z,0.09
2023-02-23T00:59:44.870Z,0.08
2023-02-23T01:02:13.015Z,0.08
2023-02-23T01:04:41.576Z,0.09
2023-02-23T01:07:13.052Z,0.10
2023-02-23T01:09:41.370Z,0.12
2023-02-23T01:12:09.908Z,0.14
2023-02-23T01:14:41.822Z,0.16
2023-02-23T01:17:19.551Z,0.16
2023-02-23T01:19:51.166Z,0.20
2023-02-23T01:22:21.961Z,0.20
2023-02-23T01:24:50.872Z,0.19
2023-02-23T01:27:22.954Z,0.18
2023-02-23T01:29:55.065Z,0.14
2023-02-23T01:32:23.452Z,0.11
2023-02-23T01:34:51.494Z,0.08
2023-02-23T01:37:19.810Z,0.05
2023-02-23T01:39:47.881Z,0.01
2023-02-23T01:42:16.487Z,-0.02
2023-02-23T01:44:48.117Z,-0.06
2023-02-23T01:47:17.754Z,-0.10
2023-02-23T01:49:47.369Z,-0.11
2023-02-23T01:52:19.834Z,-0.10
2023-02-23T01:54:55.343Z,-0.09
2023-02-23T01:57:27.776Z,-0.08
2023-02-23T01:59:56.255Z,-0.09
2023-02-23T02:02:33.966Z,-0.07
2023-02-23T02:05:08.428Z,-0.04
2023-02-23T02:07:39.854Z,-0.03
2023-02-23T02:10:12.250Z,-0.02
2023-02-23T02:12:55.389Z,-0.01
2023-02-23T02:15:34.222Z,-0.02
2023-02-23T02:18:27.384Z,-0.03
2023-02-23T02:21:26.625Z,-0.05
2023-02-23T02:24:19.471Z,-0.09
2023-02-23T02:27:00.786Z,-0.14
2023-02-23T02:30:03.205Z,-0.19
2023-02-23T02:32:49.533Z,-0.24
2023-02-23T02:35:42.124Z,-0.29
2023-02-23T02:38:54.035Z,-0.35
2023-02-23T02:41:44.933Z,-0.42
2023-02-23T02:44:27.742Z,-0.47
2023-02-23T02:47:04.829Z,-0.50
2023-02-23T02:49:43.825Z,-0.52
2023-02-23T02:52:25.235Z,-0.53
2023-02-23T02:54:59.542Z,-0.52
2023-02-23T02:57:30.030Z,-0.50
2023-02-23T03:00:16.995Z,-0.47
2023-02-23T03:03:05.912Z,-0.44
2023-02-23T03:06:04.463Z,-0.41
2023-02-23T03:09:17.318Z,-0.38
2023-02-23T03:12:16.561Z,-0.36
2023-02-23T03:15:19.046Z,-0.36
2023-02-23T03:18:10.404Z,-0.38
2023-02-23T03:21:06.565Z,-0.40
2023-02-23T03:24:15.074Z,-0.46
2023-02-23T03:27:11.476Z,-0.52
2023-02-23T03:30:18.779Z,-0.58
2023-02-23T03:33:07.883Z,-0.66
2023-02-23T03:36:38.224Z,-0.72
2023-02-23T03:39:31.408Z,-0.79
2023-02-23T03:42:23.475Z,-0.84
2023-02-23T03:45:13.290Z,-0.88
2023-02-23T03:48:02.053Z,-0.90
2023-02-23T03:51:00.712Z,-0.90
2023-02-23T03:53:58.173Z,-0.90
2023-02-23T03:56:48.925Z,-0.88
2023-02-23T03:59:40.990Z,-0.86
2023-02-23T04:02:29.747Z,-0.83
2023-02-23T04:05:20.570Z,-0.81
2023-02-23T04:08:12.662Z,-0.79
2023-02-23T04:11:08.218Z,-0.77
2023-02-23T04:13:38.935Z,-0.76
2023-02-23T04:16:09.838Z,-0.76
2023-02-23T04:18:40.373Z,-0.76
2023-02-23T04:21:10.244Z,-0.77
2023-02-23T04:23:42.732Z,-0.79
2023-02-23T04:26:11.265Z,-0.83
2023-02-23T04:28:39.702Z,-0.87
2023-02-23T04:31:08.162Z,-0.93
2023-02-23T04:33:38.994Z,-0.99
2023-02-23T04:36:08.211Z,-1.06
2023-02-23T04:38:36.753Z,-1.12
2023-02-23T04:41:05.219Z,-1.18
2023-02-23T04:43:33.656Z,-1.25
2023-02-23T04:46:03.613Z,-1.31
2023-02-23T04:48:35.802Z,-1.36
2023-02-23T04:51:06.082Z,-1.43
2023-02-23T04:53:34.560Z,-1.49
2023-02-23T04:56:02.885Z,-1.53
2023-02-23T04:58:31.445Z,-1.57
2023-02-23T05:01:06.690Z,-1.60
2023-02-23T05:03:36.316Z,-1.61
2023-02-23T05:06:12.596Z,-1.61
2023-02-23T05:08:44.030Z,-1.60
2023-02-23T05:11:20.607Z,-1.58
2023-02-23T05:13:49.187Z,-1.54
2023-02-23T05:16:21.041Z,-1.51
2023-02-23T05:18:56.459Z,-1.47
2023-02-23T05:21:37.018Z,-1.41
2023-02-23T05:24:08.195Z,-1.39
2023-02-23T05:26:37.391Z,-1.40
2023-02-23T05:29:07.157Z,-1.40
2023-02-23T05:31:35.752Z,-1.39
2023-02-23T05:34:13.448Z,-1.37
2023-02-23T05:36:46.009Z,-1.30
2023-02-23T05:39:14.383Z,-1.21
2023-02-23T05:41:47.149Z,-1.13
2023-02-23T05:44:15.711Z,-1.04
2023-02-23T05:46:50.587Z,-0.95
2023-02-23T05:49:20.249Z,-0.86
2023-02-23T05:51:49.692Z,-0.76
2023-02-23T05:54:17.992Z,-0.66
2023-02-23T05:56:46.685Z,-0.57
2023-02-23T05:59:14.831Z,-0.49
2023-02-23T06:01:43.138Z,-0.45
2023-02-23T06:04:11.299Z,-0.44
2023-02-23T06:06:40.155Z,-0.43
2023-02-23T06:09:08.491Z,-0.42
2023-02-23T06:11:37.114Z,-0.36
2023-02-23T06:14:05.172Z,-0.30
2023-02-23T06:16:33.354Z,-0.24
2023-02-23T06:19:01.585Z,-0.13
2023-02-23T06:21:31.247Z,-0.04
2023-02-23T06:24:01.282Z,0.03
2023-02-23T06:26:30.001Z,0.15
2023-02-23T06:28:58.143Z,0.35
2023-02-23T06:31:27.467Z,0.59
2023-02-23T06:33:56.326Z,0.84
2023-02-23T06:36:25.006Z,1.08
2023-02-23T06:38:58.109Z,1.33
2023-02-23T06:41:27.415Z,1.49
2023-02-23T06:43:55.997Z,1.64
2023-02-23T06:46:25.167Z,1.84
2023-02-23T06:48:57.634Z,2.07
2023-02-23T06:51:26.589Z,2.29
2023-02-23T06:53:55.214Z,2.47
2023-02-23T06:56:25.687Z,2.62
2023-02-23T06:58:54.318Z,2.64
2023-02-23T07:01:22.917Z,2.67
2023-02-23T07:03:51.701Z,2.80
2023-02-23T07:06:20.410Z,2.96
2023-02-23T07:08:49.659Z,3.06
2023-02-23T07:11:19.888Z,3.15
2023-02-23T07:13:49.157Z,3.19
2023-02-23T07:16:20.298Z,3.14
2023-02-23T07:18:49.427Z,3.05
2023-02-23T07:21:18.326Z,2.96
2023-02-23T07:23:49.970Z,2.93
2023-02-23T07:26:18.800Z,2.83
2023-02-23T07:28:47.223Z,2.74
2023-02-23T07:31:16.149Z,2.76
2023-02-23T07:33:45.950Z,2.76
2023-02-23T07:36:14.787Z,2.81
2023-02-23T07:38:43.284Z,2.91
2023-02-23T07:41:11.846Z,3.00
2023-02-23T07:43:40.352Z,3.04
2023-02-23T07:46:09.396Z,3.05
2023-02-23T07:48:42.785Z,3.03
2023-02-23T07:51:13.601Z,3.03
2023-02-23T07:53:44.944Z,3.07
2023-02-23T07:56:15.222Z,3.06
2023-02-23T07:58:45.096Z,3.01
2023-02-23T08:01:17.958Z,3.09
2023-02-23T08:03:51.305Z,3.16
2023-02-23T08:06:20.903Z,3.19
2023-02-23T08:08:50.137Z,3.23
2023-02-23T08:11:19.875Z,3.29
2023-02-23T08:13:49.666Z,3.26
2023-02-23T08:16:18.783Z,3.20
2023-02-23T08:18:48.714Z,3.22
2023-02-23T08:21:18.045Z,3.33
2023-02-23T08:23:46.612Z,3.45
2023-02-23T08:26:15.702Z,3.55
2023-02-23T08:28:46.060Z,3.61
2023-02-23T08:31:21.952Z,3.73
2023-02-23T08:33:52.474Z,3.76
2023-02-23T08:36:21.634Z,3.74
2023-02-23T08:38:50.949Z,3.72
2023-02-23T08:41:19.757Z,3.81
2023-02-23T08:43:49.369Z,3.93
2023-02-23T08:46:20.463Z,4.06
2023-02-23T08:48:49.866Z,4.15
2023-02-23T08:51:19.279Z,4.29
2023-02-23T08:53:48.633Z,4.38
2023-02-23T08:56:17.896Z,4.37
2023-02-23T08:58:47.776Z,4.37
2023-02-23T09:01:22.469Z,4.45
2023-02-23T09:03:52.209Z,4.50
2023-02-23T09:06:25.514Z,4.58
2023-02-23T09:08:56.410Z,4.66
2023-02-23T09:11:27.059Z,4.71
2023-02-23T09:13:56.648Z,4.83
2023-02-23T09:16:25.661Z,4.95
2023-02-23T09:18:55.750Z,5.05
2023-02-23T09:21:28.733Z,5.14
2023-02-23T09:24:00.067Z,5.23
2023-02-23T09:26:29.621Z,5.35
2023-02-23T09:29:01.765Z,5.40
2023-02-23T09:31:32.794Z,5.47
2023-02-23T09:34:04.320Z,5.55
2023-02-23T09:36:33.028Z,5.63
2023-02-23T09:39:03.125Z,5.69
2023-02-23T09:41:54.267Z,5.75
2023-02-23T09:44:59.316Z,5.86
2023-02-23T09:47:53.217Z,5.97
2023-02-23T09:50:26.198Z,6.07
2023-02-23T09:53:11.107Z,6.19
2023-02-23T09:55:43.675Z,6.26
2023-02-23T09:58:26.218Z,6.30
2023-02-23T10:01:10.205Z,6.38
2023-02-23T10:03:50.336Z,6.52
2023-02-23T10:06:21.467Z,6.62
2023-02-23T10:09:28.381Z,6.67
2023-02-23T10:12:10.347Z,6.73
2023-02-23T10:15:19.033Z,6.87
2023-02-23T10:18:03.272Z,7.04
2023-02-23T10:21:30.027Z,7.19
2023-02-23T10:24:04.129Z,7.25
2023-02-23T10:26:49.908Z,7.31
2023-02-23T10:29:23.952Z,7.42
2023-02-23T10:31:59.230Z,7.50
2023-02-23T10:34:29.484Z,7.57
2023-02-23T10:37:00.230Z,7.65
2023-02-23T10:39:32.076Z,7.74
2023-02-23T10:42:06.069Z,7.85
2023-02-23T10:44:38.406Z,7.88
2023-02-23T10:47:17.304Z,7.91
2023-02-23T10:49:49.226Z,7.98
2023-02-23T10:52:41.700Z,8.08
2023-02-23T10:55:26.416Z,8.20
2023-02-23T10:58:20.703Z,8.26
2023-02-23T11:00:53.967Z,8.32
2023-02-23T11:03:36.370Z,8.37
2023-02-23T11:06:05.547Z,8.43
2023-02-23T11:08:37.213Z,8.45
2023-02-23T11:11:21.124Z,8.53
2023-02-23T11:13:51.544Z,8.66
2023-02-23T11:16:24.549Z,8.83
2023-02-23T11:19:05.710Z,8.99
2023-02-23T11:21:39.135Z,9.08
2023-02-23T11:24:24.151Z,9.15
2023-02-23T11:26:58.202Z,9.22
2023-02-23T11:29:44.165Z,9.26
2023-02-23T11:32:19.825Z,9.32
2023-02-23T11:35:16.144Z,9.39
2023-02-23T11:37:45.546Z,9.50
2023-02-23T11:40:22.944Z,9.56
2023-02-23T11:43:17.021Z,9.59
2023-02-23T11:45:49.461Z,9.67
2023-02-23T11:48:27.598Z,9.74
2023-02-23T11:50:57.532Z,9.75
2023-02-23T11:53:32.640Z,9.79
2023-02-23T11:56:08.507Z,9.81
2023-02-23T11:58:56.649Z,9.75
2023-02-23T12:01:47.310Z,9.71
2023-02-23T12:04:33.531Z,9.75
2023-02-23T12:07:24.464Z,9.80
2023-02-23T12:10:03.801Z,9.85
2023-02-23T12:12:40.746Z,9.90
2023-02-23T12:15:48.490Z,9.95
2023-02-23T12:18:46.794Z,10.04
2023-02-23T12:21:20.355Z,10.07
2023-02-23T12:23:52.945Z,10.04
2023-02-23T12:26:23.712Z,10.01
2023-02-23T12:29:05.396Z,9.98
2023-02-23T12:31:54.277Z,10.02
2023-02-23T12:34:33.973Z,10.08
2023-02-23T12:37:40.471Z,10.12
2023-02-23T12:40:24.559Z,10.18
2023-02-23T12:43:09.250Z,10.19
2023-02-23T12:46:08.437Z,10.21
2023-02-23T12:48:50.362Z,10.23
2023-02-23T12:51:21.880Z,10.31
2023-02-23T12:53:50.257Z,10.41
2023-02-23T12:56:49.502Z,10.47
2023-02-23T12:59:49.385Z,10.56
2023-02-23T13:02:30.147Z,10.67
2023-02-23T13:05:15.789Z,10.74
2023-02-23T13:08:13.581Z,10.77
2023-02-23T13:10:56.195Z,10.85
2023-02-23T13:13:51.147Z,10.96
2023-02-23T13:16:44.534Z,11.02
2023-02-23T13:19:22.394Z,11.01
2023-02-23T13:22:06.585Z,11.02
2023-02-23T13:24:43.551Z,11.05
2023-02-23T13:27:38.277Z,11.16
2023-02-23T13:30:11.835Z,11.22
2023-02-23T13:32:40.622Z,11.26
2023-02-23T13:35:19.375Z,11.23
2023-02-23T13:38:13.154Z,11.28
2023-02-23T13:40:51.404Z,11.27
2023-02-23T13:43:30.388Z,11.23
2023-02-23T13:46:31.721Z,11.23
2023-02-23T13:49:04.492Z,11.27
2023-02-23T13:51:36.003Z,11.25
2023-02-23T13:54:24.905Z,11.23
2023-02-23T13:57:01.562Z,11.19
2023-02-23T13:59:37.842Z,11.24
2023-02-23T14:02:41.268Z,11.30
2023-02-23T14:05:21.324Z,11.26
2023-02-23T14:07:54.302Z,11.19
2023-02-23T14:10:30.436Z,11.19
2023-02-23T14:13:14.078Z,11.20
2023-02-23T14:15:53.890Z,11.19
2023-02-23T14:18:22.342Z,11.15
2023-02-23T14:21:20.578Z,11.13
2023-02-23T14:23:54.659Z,11.13
2023-02-23T14:26:29.485Z,11.12
2023-02-23T14:29:20.448Z,11.10
2023-02-23T14:32:21.315Z,11.11
2023-02-23T14:34:59.393Z,11.11
2023-02-23T14:37:32.305Z,11.08
2023-02-23T14:40:14.126Z,11.04
2023-02-23T14:42:48.000Z,10.99
2023-02-23T14:45:27.437Z,10.94
2023-02-23T14:48:02.582Z,10.89
2023-02-23T14:50:35.306Z,10.84
2023-02-23T14:53:09.928Z,10.81
2023-02-23T14:55:43.618Z,10.76
2023-02-23T14:58:26.344Z,10.72
2023-02-23T15:00:55.396Z,10.66
2023-02-23T15:03:24.122Z,10.62
2023-02-23T15:06:02.426Z,10.59
2023-02-23T15:08:34.125Z,10.57
2023-02-23T15:11:13.532Z,10.55
2023-02-23T15:13:50.554Z,10.52
2023-02-23T15:16:28.625Z,10.48
2023-02-23T15:19:00.712Z,10.42
2023-02-23T15:21:29.695Z,10.35
2023-02-23T15:24:13.811Z,10.32
2023-02-23T15:26:43.973Z,10.28
2023-02-23T15:29:22.478Z,10.24
2023-02-23T15:31:55.820Z,10.20
2023-02-23T15:34:30.875Z,10.16
2023-02-23T15:37:38.086Z,10.11
2023-02-23T15:40:15.165Z,10.03
2023-02-23T15:42:51.423Z,9.96
2023-02-23T15:45:35.209Z,9.87
2023-02-23T15:48:07.958Z,9.78
2023-02-23T15:50:42.794Z,9.67
2023-02-23T15:53:22.762Z,9.58
2023-02-23T15:56:03.192Z,9.49
2023-02-23T15:58:42.050Z,9.38
2023-02-23T16:01:29.767Z,9.27
2023-02-23T16:04:07.484Z,9.17
2023-02-23T16:06:41.976Z,9.07
2023-02-23T16:09:24.416Z,8.99
2023-02-23T16:11:55.589Z,8.92
2023-02-23T16:14:25.608Z,8.85
2023-02-23T16:17:10.516Z,8.79
2023-02-23T16:19:42.102Z,8.75
2023-02-23T16:22:22.842Z,8.71
2023-02-23T16:25:01.460Z,8.65
2023-02-23T16:27:30.802Z,8.59
2023-02-23T16:30:25.165Z,8.52
2023-02-23T16:33:24.698Z,8.42
2023-02-23T16:36:08.432Z,8.31
2023-02-23T16:39:01.830Z,8.22
2023-02-23T16:41:34.889Z,8.10
2023-02-23T16:44:06.114Z,7.99
2023-02-23T16:47:02.124Z,7.91
2023-02-23T16:49:31.622Z,7.82
2023-02-23T16:52:01.951Z,7.75
2023-02-23T16:54:30.814Z,7.66
2023-02-23T16:56:59.672Z,7.59
2023-02-23T16:59:29.110Z,7.53
2023-02-23T17:01:57.701Z,7.45
2023-02-23T17:04:26.891Z,7.37
2023-02-23T17:06:58.018Z,7.30
2023-02-23T17:09:27.713Z,7.26
2023-02-23T17:11:57.994Z,7.24
2023-02-23T17:14:28.776Z,7.22
2023-02-23T17:16:57.457Z,7.19
2023-02-23T17:19:26.300Z,7.15
2023-02-23T17:21:54.508Z,7.10
2023-02-23T17:24:26.316Z,7.05
2023-02-23T17:26:55.687Z,7.01
2023-02-23T17:29:24.995Z,6.99
2023-02-23T17:31:53.771Z,6.99
2023-02-23T17:34:23.624Z,6.99
2023-02-23T17:36:52.215Z,6.96
2023-02-23T17:39:20.680Z,6.94
2023-02-23T17:41:49.393Z,6.90
2023-02-23T17:44:17.712Z,6.84
2023-02-23T17:46:46.033Z,6.76
2023-02-23T17:49:14.358Z,6.67
2023-02-23T17:51:42.645Z,6.60
2023-02-23T17:54:10.967Z,6.53
2023-02-23T17:56:39.609Z,6.44
2023-02-23T17:59:07.843Z,6.34
2023-02-23T18:01:36.134Z,6.23
2023-02-23T18:04:04.804Z,6.13
2023-02-23T18:06:33.157Z,6.02
2023-02-23T18:09:01.439Z,5.93
2023-02-23T18:11:29.602Z,5.84
2023-02-23T18:13:57.783Z,5.76
2023-02-23T18:16:26.468Z,5.67
2023-02-23T18:18:57.662Z,5.59
2023-02-23T18:21:26.106Z,5.51
2023-02-23T18:23:54.926Z,5.44
2023-02-23T18:26:24.434Z,5.40
2023-02-23T18:28:54.364Z,5.34
2023-02-23T18:31:25.655Z,5.31
2023-02-23T18:33:54.828Z,5.27
2023-02-23T18:36:30.036Z,5.24
2023-02-23T18:38:59.472Z,5.21
2023-02-23T18:41:31.121Z,5.21
2023-02-23T18:44:01.809Z,5.24
2023-02-23T18:46:31.364Z,5.25
2023-02-23T18:49:00.394Z,5.27
2023-02-23T18:51:29.016Z,5.28
2023-02-23T18:53:57.905Z,5.29
2023-02-23T18:56:28.418Z,5.30
2023-02-23T18:58:59.964Z,5.29
2023-02-23T19:01:31.315Z,5.27
2023-02-23T19:04:02.715Z,5.27
2023-02-23T19:06:32.318Z,5.27
2023-02-23T19:09:04.361Z,5.24
2023-02-23T19:11:34.625Z,5.22
2023-02-23T19:14:08.919Z,5.18
2023-02-23T19:16:38.354Z,5.12
2023-02-23T19:19:08.710Z,5.05
2023-02-23T19:21:38.346Z,4.97
2023-02-23T19:24:07.648Z,4.91
2023-02-23T19:26:38.380Z,4.85
2023-02-23T19:29:07.068Z,4.80
2023-02-23T19:31:37.576Z,4.75
2023-02-23T19:34:09.076Z,4.71
2023-02-23T19:36:37.989Z,4.71
2023-02-23T19:39:10.954Z,4.70
2023-02-23T19:41:40.761Z,4.70
2023-02-23T19:44:10.356Z,4.69
2023-02-23T19:46:40.205Z,4.71
2023-02-23T19:49:08.271Z,4.72
2023-02-23T19:51:36.713Z,4.74
2023-02-23T19:54:06.702Z,4.77
2023-02-23T19:56:35.486Z,4.78
2023-02-23T19:59:04.910Z,4.79
2023-02-23T20:01:33.478Z,4.77
2023-02-23T20:04:02.463Z,4.72
2023-02-23T20:06:38.041Z,4.67
2023-02-23T20:09:07.781Z,4.61
2023-02-23T20:11:36.934Z,4.55
2023-02-23T20:14:08.251Z,4.48
2023-02-23T20:16:37.331Z,4.42
2023-02-23T20:19:07.879Z,4.36
2023-02-23T20:21:36.947Z,4.29
2023-02-23T20:24:05.800Z,4.22
2023-02-23T20:26:37.403Z,4.16
2023-02-23T20:29:11.169Z,4.09
2023-02-23T20:31:42.117Z,4.04
2023-02-23T20:34:12.333Z,3.99
2023-02-23T20:36:40.574Z,3.96
2023-02-23T20:39:11.107Z,3.94
2023-02-23T20:41:43.558Z,3.92
2023-02-23T20:44:13.986Z,3.91
2023-02-23T20:46:44.449Z,3.91
2023-02-23T20:49:13.458Z,3.91
2023-02-23T20:51:45.125Z,3.92
2023-02-23T20:54:15.493Z,3.93
2023-02-23T20:56:45.440Z,3.95
2023-02-23T20:59:14.086Z,3.95
2023-02-23T21:01:47.295Z,3.90
2023-02-23T21:04:16.569Z,3.86
2023-02-23T21:06:44.765Z,3.81
2023-02-23T21:09:18.082Z,3.76
2023-02-23T21:11:48.382Z,3.71
2023-02-23T21:14:17.620Z,3.65
2023-02-23T21:16:46.713Z,3.58
2023-02-23T21:19:17.681Z,3.50
2023-02-23T21:21:51.395Z,3.43
2023-02-23T21:24:21.371Z,3.35
2023-02-23T21:26:50.166Z,3.28
2023-02-23T21:29:18.778Z,3.21
2023-02-23T21:31:47.270Z,3.14
2023-02-23T21:34:18.957Z,3.09
2023-02-23T21:36:48.566Z,3.04
2023-02-23T21:39:16.867Z,2.99
2023-02-23T21:41:45.227Z,2.97
2023-02-23T21:44:13.983Z,2.96
2023-02-23T21:46:42.733Z,2.95
2023-02-23T21:49:11.040Z,2.96
2023-02-23T21:51:42.200Z,2.98
2023-02-23T21:54:11.205Z,2.98
2023-02-23T21:56:39.506Z,2.99
2023-02-23T21:59:11.004Z,3.01
2023-02-23T22:01:41.125Z,3.02
2023-02-23T22:04:13.768Z,3.00
2023-02-23T22:06:45.172Z,2.95
2023-02-23T22:09:16.654Z,2.89
2023-02-23T22:11:47.494Z,2.80
2023-02-23T22:14:18.913Z,2.74
2023-02-23T22:16:47.971Z,2.70
2023-02-23T22:19:18.575Z,2.63
2023-02-23T22:21:50.207Z,2.57
2023-02-23T22:24:19.134Z,2.53
2023-02-23T22:26:54.440Z,2.49
2023-02-23T22:29:24.956Z,2.46
2023-02-23T22:31:53.435Z,2.42
2023-02-23T22:34:22.130Z,2.39
2023-02-23T22:36:50.783Z,2.38
2023-02-23T22:39:19.237Z,2.38
2023-02-23T22:41:48.323Z,2.38
2023-02-23T22:44:21.652Z,2.38
2023-02-23T22:46:50.582Z,2.37
2023-02-23T22:49:20.694Z,2.36
2023-02-23T22:51:50.836Z,2.33
2023-02-23T22:54:20.770Z,2.29
2023-02-23T22:56:49.397Z,2.23
2023-02-23T22:59:20.757Z,2.19
2023-02-23T23:01:50.629Z,2.13
2023-02-23T23:04:22.204Z,2.05
2023-02-23T23:06:50.866Z,1.98
2023-02-23T23:09:21.467Z,1.91
2023-02-23T23:11:52.821Z,1.85
2023-02-23T23:14:23.359Z,1.78
2023-02-23T23:16:51.785Z,1.72
2023-02-23T23:19:24.412Z,1.68
2023-02-23T23:21:55.552Z,1.64
2023-02-23T23:24:25.171Z,1.64
2023-02-23T23:26:55.779Z,1.64
2023-02-23T23:29:26.180Z,1.63
2023-02-23T23:31:57.172Z,1.65
2023-02-23T23:34:25.937Z,1.68
2023-02-23T23:36:55.594Z,1.68
2023-02-23T23:39:26.393Z,1.69
2023-02-23T23:41:54.928Z,1.69
2023-02-23T23:44:29.668Z,1.71
2023-02-23T23:46:58.672Z,1.74
2023-02-23T23:49:27.320Z,1.76
2023-02-23T23:51:57.047Z,1.77
2023-02-23T23:54:31.185Z,1.74
2023-02-23T23:57:04.029Z,1.70
2023-02-23T23:59:34.403Z,1.63
